Time;durP1;ratioP1;P1;durP2;ratioP2;P2;SDS_P1;SDS_P2;PMS_P1;PMS_P2;Temp;Humidity;BMP_temperature;BMP_pressure;BME280_temperature;BME280_humidity;BME280_pressure;Samples;Min_cycle;Max_cycle;Signal;HPM_P1;HPM_P2
2023/10/30 00:01:47;;;;;;;4.38;0.63;;;10.50;99.90;;;;;;5043659;28;20037;-72
2023/10/30 00:04:14;;;;;;;5.60;1.05;;;10.50;99.90;;;;;;5048260;28;20519;-72
2023/10/30 00:06:40;;;;;;;5.90;0.93;;;10.50;99.90;;;;;;5039061;28;20044;-72
2023/10/30 00:09:05;;;;;;;3.20;1.20;;;10.40;99.90;;;;;;5051955;28;20036;-73
2023/10/30 00:11:31;;;;;;;2.17;0.50;;;10.50;99.90;;;;;;5055244;28;20056;-72
2023/10/30 00:13:56;;;;;;;5.77;0.60;;;10.50;99.90;;;;;;5054993;28;20041;-72
2023/10/30 00:16:22;;;;;;;4.00;0.60;;;10.40;99.90;;;;;;5050735;28;20120;-72
2023/10/30 00:18:48;;;;;;;3.83;0.60;;;10.40;99.90;;;;;;5044239;28;20392;-72
2023/10/30 00:21:14;;;;;;;;;;;10.40;99.90;;;;;;5052841;28;20080;-72
2023/10/30 00:23:40;;;;;;;7.18;1.15;;;10.30;99.90;;;;;;5045091;28;20495;-74
2023/10/30 00:26:06;;;;;;;4.07;0.87;;;10.30;99.90;;;;;;5042964;28;20095;-72
2023/10/30 00:28:33;;;;;;;3.47;0.52;;;10.30;99.90;;;;;;5045856;28;20385;-73
2023/10/30 00:31:00;;;;;;;3.78;0.77;;;10.30;99.90;;;;;;5024744;28;20429;-72
2023/10/30 00:33:25;;;;;;;;;;;10.30;99.90;;;;;;5054162;28;20051;-72
2023/10/30 00:35:51;;;;;;;3.05;0.70;;;10.30;99.90;;;;;;5047830;28;20340;-72
2023/10/30 00:38:16;;;;;;;2.80;0.43;;;10.30;99.90;;;;;;5055622;28;20105;-72
2023/10/30 00:40:42;;;;;;;2.37;0.57;;;10.20;99.90;;;;;;5048394;28;20100;-75
2023/10/30 00:43:08;;;;;;;1.77;0.43;;;10.30;99.90;;;;;;5044884;28;20269;-73
2023/10/30 00:45:33;;;;;;;1.83;0.57;;;10.20;99.90;;;;;;5041910;28;20497;-73
2023/10/30 00:47:59;;;;;;;2.83;0.70;;;10.20;99.90;;;;;;5041345;28;20493;-73
2023/10/30 00:50:25;;;;;;;1.05;0.35;;;10.20;99.90;;;;;;5045120;28;20045;-74
2023/10/30 00:52:50;;;;;;;2.17;0.50;;;10.20;99.90;;;;;;5044413;28;20045;-72
2023/10/30 00:55:16;;;;;;;2.73;0.43;;;10.20;99.90;;;;;;5053210;28;20060;-74
2023/10/30 00:57:42;;;;;;;1.63;0.57;;;10.20;99.90;;;;;;5041641;28;20305;-73
2023/10/30 01:00:08;;;;;;;2.00;0.38;;;10.10;99.90;;;;;;5044136;28;20518;-73
2023/10/30 01:02:34;;;;;;;1.33;0.60;;;10.20;99.90;;;;;;5030722;28;20072;-73
2023/10/30 01:04:59;;;;;;;2.67;0.50;;;10.20;99.90;;;;;;5051075;28;20057;-73
2023/10/30 01:07:25;;;;;;;2.87;0.60;;;10.20;99.90;;;;;;5046590;28;20041;-72
2023/10/30 01:09:51;;;;;;;4.13;0.50;;;10.20;99.90;;;;;;5057463;28;20059;-74
2023/10/30 01:12:16;;;;;;;4.57;0.40;;;10.20;99.90;;;;;;5049876;28;20040;-73
2023/10/30 01:14:42;;;;;;;1.90;0.73;;;10.20;99.90;;;;;;5049827;28;20041;-72
2023/10/30 01:17:08;;;;;;;3.53;0.70;;;10.20;99.90;;;;;;5029303;28;20036;-73
2023/10/30 01:19:33;;;;;;;2.63;0.90;;;10.10;99.90;;;;;;5035604;28;20045;-72
2023/10/30 01:21:59;;;;;;;2.10;0.53;;;10.10;99.90;;;;;;5046623;28;20481;-72
2023/10/30 01:24:25;;;;;;;3.53;0.50;;;10.10;99.90;;;;;;5043512;28;20123;-72
2023/10/30 01:26:50;;;;;;;1.17;0.45;;;10.00;99.90;;;;;;5056399;28;20187;-73
2023/10/30 01:29:16;;;;;;;0.70;0.30;;;10.10;99.90;;;;;;5044734;28;20135;-72
2023/10/30 01:31:42;;;;;;;2.17;0.45;;;10.00;99.90;;;;;;5046290;28;20056;-72
2023/10/30 01:34:07;;;;;;;1.97;0.60;;;10.00;99.90;;;;;;5055286;28;20052;-73
2023/10/30 01:36:33;;;;;;;4.23;0.43;;;10.00;99.90;;;;;;5057159;28;20048;-72
2023/10/30 01:38:58;;;;;;;1.70;0.30;;;10.00;99.90;;;;;;5050605;28;20040;-73
2023/10/30 01:41:24;;;;;;;3.63;0.60;;;9.90;99.90;;;;;;5051615;28;20117;-72
2023/10/30 01:43:50;;;;;;;0.98;0.40;;;9.90;99.90;;;;;;5053918;28;20161;-72
2023/10/30 01:46:16;;;;;;;4.73;0.40;;;9.90;99.90;;;;;;5048311;28;20575;-73
2023/10/30 01:48:42;;;;;;;2.23;0.30;;;9.90;99.90;;;;;;5047575;28;20092;-72
2023/10/30 01:51:10;;;;;;;2.13;0.50;;;9.90;99.90;;;;;;5047740;28;20289;-72
2023/10/30 01:53:36;;;;;;;1.52;0.30;;;9.90;99.90;;;;;;5048188;28;20045;-72
2023/10/30 01:56:03;;;;;;;5.25;0.43;;;9.90;99.90;;;;;;5049722;28;20111;-72
2023/10/30 01:58:30;;;;;;;0.93;0.35;;;9.90;99.90;;;;;;5054845;28;20052;-74
2023/10/30 02:00:57;;;;;;;4.68;0.50;;;9.90;99.90;;;;;;5038326;28;20365;-72
2023/10/30 02:03:23;;;;;;;2.55;0.40;;;9.90;99.90;;;;;;5047077;28;20052;-75
2023/10/30 02:05:49;;;;;;;1.93;0.60;;;9.80;99.90;;;;;;5058065;28;20052;-74
2023/10/30 02:08:16;;;;;;;1.83;0.30;;;9.80;99.90;;;;;;5049117;28;20072;-73
2023/10/30 02:10:42;;;;;;;1.55;0.35;;;9.80;99.90;;;;;;5056171;28;20117;-72
2023/10/30 02:13:11;;;;;;;3.13;0.60;;;9.80;99.90;;;;;;5045719;28;20060;-73
2023/10/30 02:15:36;;;;;;;5.22;0.40;;;9.80;99.90;;;;;;5049789;28;20040;-73
2023/10/30 02:18:03;;;;;;;2.28;0.45;;;9.80;99.90;;;;;;5047395;28;20060;-72
2023/10/30 02:20:29;;;;;;;2.28;0.55;;;9.80;99.90;;;;;;5051738;28;20060;-72
2023/10/30 02:22:54;;;;;;;4.45;1.10;;;9.80;99.90;;;;;;5045537;28;20045;-72
2023/10/30 02:25:24;;;;;;;3.60;0.73;;;9.80;99.90;;;;;;5048528;28;20049;-72
2023/10/30 02:27:50;;;;;;;4.60;0.63;;;9.80;99.90;;;;;;5047997;28;20059;-73
2023/10/30 02:30:16;;;;;;;2.40;0.60;;;9.80;99.90;;;;;;5051084;28;20071;-74
2023/10/30 02:32:44;;;;;;;2.00;0.53;;;9.90;99.90;;;;;;5047975;28;20801;-72
2023/10/30 02:35:16;;;;;;;5.07;0.85;;;9.80;99.90;;;;;;5042327;28;20443;-72
2023/10/30 02:37:43;;;;;;;2.03;0.70;;;9.80;99.90;;;;;;5050542;28;20057;-73
2023/10/30 02:40:09;;;;;;;5.03;0.80;;;9.80;99.90;;;;;;5046856;28;20467;-73
2023/10/30 02:42:35;;;;;;;2.80;1.17;;;9.80;99.90;;;;;;5051695;28;20033;-74
2023/10/30 02:45:03;;;;;;;2.78;0.80;;;9.80;99.90;;;;;;5049367;28;20044;-73
2023/10/30 02:47:29;;;;;;;2.13;1.00;;;9.80;99.90;;;;;;5047409;28;20048;-72
2023/10/30 02:49:55;;;;;;;5.25;0.98;;;9.80;99.90;;;;;;5049398;28;20144;-72
2023/10/30 02:52:20;;;;;;;11.67;1.00;;;9.80;99.90;;;;;;5049984;28;20064;-73
2023/10/30 02:54:46;;;;;;;4.33;0.93;;;9.80;99.90;;;;;;5043350;28;20464;-72
2023/10/30 02:57:13;;;;;;;2.20;1.07;;;9.80;99.90;;;;;;5043668;28;20091;-73
2023/10/30 02:59:39;;;;;;;2.90;1.15;;;9.80;99.90;;;;;;5043447;28;20048;-72
2023/10/30 03:02:05;;;;;;;3.53;0.90;;;9.80;99.90;;;;;;5047919;28;20230;-73
2023/10/30 03:04:30;;;;;;;3.67;1.00;;;9.80;99.90;;;;;;5052562;28;20570;-72
2023/10/30 03:06:59;;;;;;;6.13;1.70;;;9.80;99.90;;;;;;5044288;28;20466;-74
2023/10/30 03:09:37;;;;;;;4.32;1.00;;;9.80;99.90;;;;;;5044937;28;20118;-74
2023/10/30 03:12:04;;;;;;;6.10;1.02;;;9.80;99.90;;;;;;5052425;28;22298;-74
2023/10/30 03:14:30;;;;;;;4.88;1.25;;;9.80;99.90;;;;;;5052828;28;20071;-73
2023/10/30 03:16:55;;;;;;;3.57;1.00;;;9.80;99.90;;;;;;5051564;28;20080;-73
2023/10/30 03:19:21;;;;;;;5.67;1.37;;;9.80;99.90;;;;;;5049360;28;20052;-74
2023/10/30 03:21:47;;;;;;;5.65;1.23;;;9.80;99.90;;;;;;5054575;28;20032;-74
2023/10/30 03:24:12;;;;;;;2.50;1.20;;;9.70;99.90;;;;;;5051403;28;20072;-72
2023/10/30 03:26:38;;;;;;;5.93;1.00;;;9.80;99.90;;;;;;5053962;28;20036;-72
2023/10/30 03:29:04;;;;;;;6.43;1.53;;;9.80;99.90;;;;;;5033251;28;20051;-73
2023/10/30 03:31:29;;;;;;;4.27;1.10;;;9.80;99.90;;;;;;5051396;28;20054;-73
2023/10/30 03:33:55;;;;;;;2.47;0.97;;;9.80;99.90;;;;;;5051180;28;20441;-73
2023/10/30 03:36:22;;;;;;;7.13;1.10;;;9.80;99.90;;;;;;5049695;28;20131;-73
2023/10/30 03:38:48;;;;;;;5.90;1.42;;;9.70;99.90;;;;;;5051931;28;20051;-73
2023/10/30 03:41:14;;;;;;;4.40;1.55;;;9.80;99.90;;;;;;5053899;28;20119;-73
2023/10/30 03:43:40;;;;;;;5.00;0.90;;;9.70;99.90;;;;;;5052511;28;20215;-75
2023/10/30 03:46:05;;;;;;;7.13;1.47;;;9.70;99.90;;;;;;5044696;28;20516;-72
2023/10/30 03:48:31;;;;;;;9.23;1.33;;;9.70;99.90;;;;;;5054457;28;20041;-73
2023/10/30 03:50:57;;;;;;;4.03;1.25;;;9.70;99.90;;;;;;5050887;28;20044;-73
2023/10/30 03:53:22;;;;;;;6.53;1.53;;;9.60;99.90;;;;;;5056570;28;20512;-73
2023/10/30 03:55:48;;;;;;;7.33;1.50;;;9.60;99.90;;;;;;5056071;28;20408;-73
2023/10/30 03:58:14;;;;;;;2.27;1.03;;;9.60;99.90;;;;;;5047954;28;20055;-73
2023/10/30 04:00:41;;;;;;;7.20;1.20;;;9.60;99.90;;;;;;5058558;28;20115;-73
2023/10/30 04:03:07;;;;;;;6.43;1.38;;;9.60;99.90;;;;;;5050454;28;20037;-72
2023/10/30 04:05:33;;;;;;;7.18;1.60;;;9.60;99.90;;;;;;5051139;28;20041;-73
2023/10/30 04:07:58;;;;;;;7.83;1.50;;;9.60;99.90;;;;;;5050597;28;20620;-72
2023/10/30 04:10:24;;;;;;;6.30;1.37;;;9.50;99.90;;;;;;5056107;28;20048;-74
2023/10/30 04:12:50;;;;;;;4.43;0.93;;;9.50;99.90;;;;;;5058784;28;20055;-73
2023/10/30 04:15:17;;;;;;;10.73;1.37;;;9.50;99.90;;;;;;5057131;28;20037;-73
2023/10/30 04:17:43;;;;;;;7.75;1.10;;;9.50;99.90;;;;;;5049170;28;20040;-74
2023/10/30 04:20:10;;;;;;;11.35;1.20;;;9.50;99.90;;;;;;5053383;28;20043;-72
2023/10/30 04:22:35;;;;;;;7.78;1.35;;;9.50;99.90;;;;;;5052416;28;20048;-73
2023/10/30 04:25:02;;;;;;;10.10;2.17;;;9.50;99.90;;;;;;5047941;28;20452;-73
2023/10/30 04:27:27;;;;;;;;;;;9.50;99.90;;;;;;5053067;28;20041;-72
2023/10/30 04:29:53;;;;;;;6.22;1.27;;;9.50;99.90;;;;;;5054456;28;20057;-73
2023/10/30 04:32:18;;;;;;;7.20;1.37;;;9.50;99.90;;;;;;5053149;28;20041;-75
2023/10/30 04:34:44;;;;;;;5.90;1.67;;;9.40;99.90;;;;;;5050815;28;20214;-73
2023/10/30 04:37:10;;;;;;;7.60;1.00;;;9.50;99.90;;;;;;5054194;28;20043;-74
2023/10/30 04:39:35;;;;;;;3.20;1.30;;;9.50;99.90;;;;;;5056369;28;20476;-73
2023/10/30 04:42:01;;;;;;;8.07;1.30;;;9.50;99.90;;;;;;5034977;28;20032;-73
2023/10/30 04:44:27;;;;;;;5.93;0.98;;;9.50;99.90;;;;;;5047949;28;20230;-75
2023/10/30 04:46:52;;;;;;;6.77;1.20;;;9.50;99.90;;;;;;5051430;28;20041;-73
2023/10/30 04:49:18;;;;;;;5.73;1.30;;;9.50;99.90;;;;;;5050518;28;20045;-73
2023/10/30 04:51:43;;;;;;;6.67;1.17;;;9.50;99.90;;;;;;5054809;28;20131;-76
2023/10/30 04:54:09;;;;;;;4.10;1.30;;;9.60;99.90;;;;;;5053999;28;20489;-72
2023/10/30 04:56:35;;;;;;;4.63;1.00;;;9.50;99.90;;;;;;5051915;28;20059;-74
2023/10/30 04:59:00;;;;;;;3.60;0.85;;;9.60;99.90;;;;;;5061333;28;20470;-77
2023/10/30 05:01:26;;;;;;;5.00;1.17;;;9.50;99.90;;;;;;5047061;28;20049;-79
2023/10/30 05:03:52;;;;;;;9.13;1.43;;;9.50;99.90;;;;;;5050979;28;20037;-77
2023/10/30 05:06:17;;;;;;;4.03;0.90;;;9.50;99.90;;;;;;5052514;28;20099;-73
2023/10/30 05:08:44;;;;;;;5.60;0.80;;;9.50;99.90;;;;;;5056057;28;20029;-73
2023/10/30 05:11:10;;;;;;;5.10;1.08;;;9.50;99.90;;;;;;5052820;28;20052;-73
2023/10/30 05:13:35;;;;;;;3.63;0.80;;;9.50;99.90;;;;;;5055473;28;20036;-72
2023/10/30 05:16:01;;;;;;;9.27;1.77;;;9.40;99.90;;;;;;5053836;28;20037;-72
2023/10/30 05:18:30;;;;;;;7.07;1.10;;;9.50;99.90;;;;;;5064300;28;20514;-74
2023/10/30 05:20:56;;;;;;;6.80;1.75;;;9.50;99.90;;;;;;5055976;28;20033;-72
2023/10/30 05:23:21;;;;;;;4.65;1.00;;;9.50;99.90;;;;;;5050282;28;20135;-72
2023/10/30 05:25:47;;;;;;;15.33;1.37;;;9.50;99.90;;;;;;5054967;28;20133;-72
2023/10/30 05:28:13;;;;;;;3.10;1.08;;;9.40;99.90;;;;;;5049367;28;20444;-73
2023/10/30 05:30:39;;;;;;;9.93;1.20;;;9.40;99.90;;;;;;5061053;28;20041;-73
2023/10/30 05:33:04;;;;;;;8.77;1.13;;;9.40;99.90;;;;;;5059028;28;20132;-72
2023/10/30 05:35:31;;;;;;;9.73;1.27;;;9.40;99.90;;;;;;5051566;28;20037;-72
2023/10/30 05:37:56;;;;;;;4.97;0.98;;;9.40;99.90;;;;;;5050910;28;20412;-72
2023/10/30 05:40:22;;;;;;;7.80;1.77;;;9.40;99.90;;;;;;5058789;28;20033;-73
2023/10/30 05:42:48;;;;;;;8.40;0.87;;;9.40;99.90;;;;;;5059575;28;20286;-72
2023/10/30 05:45:13;;;;;;;8.80;1.27;;;9.30;99.90;;;;;;5033163;28;20036;-72
2023/10/30 05:47:39;;;;;;;6.53;1.10;;;9.40;99.90;;;;;;5047226;28;20056;-72
2023/10/30 05:50:05;;;;;;;5.93;1.10;;;9.40;99.90;;;;;;5055734;28;20040;-72
2023/10/30 05:52:31;;;;;;;12.23;1.83;;;9.40;99.90;;;;;;5046979;28;20351;-73
2023/10/30 05:54:57;;;;;;;6.87;1.10;;;9.40;99.90;;;;;;5054061;28;20443;-72
2023/10/30 05:57:22;;;;;;;8.50;2.17;;;9.40;99.90;;;;;;5055416;28;20561;-71
2023/10/30 05:59:48;;;;;;;6.37;0.93;;;9.40;99.90;;;;;;5054109;28;20086;-73
2023/10/30 06:02:15;;;;;;;8.97;1.67;;;9.40;99.90;;;;;;5050092;28;20089;-72
2023/10/30 06:04:40;;;;;;;11.70;1.20;;;9.40;99.90;;;;;;5047670;28;20037;-72
2023/10/30 06:07:06;;;;;;;5.05;1.27;;;9.40;99.90;;;;;;5052678;28;20040;-73
2023/10/30 06:09:32;;;;;;;5.20;0.97;;;9.40;99.90;;;;;;5048647;28;20082;-72
2023/10/30 06:11:57;;;;;;;7.37;1.67;;;9.30;99.90;;;;;;5059143;28;20382;-72
2023/10/30 06:14:23;;;;;;;5.37;1.43;;;9.40;99.90;;;;;;5051122;28;20040;-73
2023/10/30 06:16:49;;;;;;;8.30;1.40;;;9.40;99.90;;;;;;5031365;28;20460;-72
2023/10/30 06:19:15;;;;;;;10.53;1.47;;;9.30;99.90;;;;;;5060155;28;20040;-72
2023/10/30 06:21:43;;;;;;;5.93;1.63;;;9.40;99.90;;;;;;5049527;28;20051;-71
2023/10/30 06:24:09;;;;;;;6.43;1.50;;;9.40;99.90;;;;;;5049064;28;20121;-72
2023/10/30 06:26:38;;;;;;;14.75;1.40;;;9.40;99.90;;;;;;5052472;28;20049;-72
2023/10/30 06:29:04;;;;;;;6.13;1.30;;;9.40;99.90;;;;;;5054114;28;20607;-72
2023/10/30 06:31:29;;;;;;;9.00;1.10;;;9.40;99.90;;;;;;5058047;28;20110;-72
2023/10/30 06:33:55;;;;;;;6.63;1.03;;;9.40;99.90;;;;;;5052971;28;20277;-72
2023/10/30 06:36:21;;;;;;;4.35;1.15;;;9.40;99.90;;;;;;5060374;28;20040;-72
2023/10/30 06:38:47;;;;;;;11.20;1.38;;;9.40;99.90;;;;;;5057035;28;20067;-72
2023/10/30 06:41:14;;;;;;;2.53;0.80;;;9.40;99.90;;;;;;5049839;28;20037;-72
2023/10/30 06:43:40;;;;;;;10.27;1.10;;;9.40;99.90;;;;;;5057023;28;20075;-72
2023/10/30 06:46:06;;;;;;;;;;;9.40;99.90;;;;;;5031624;28;20040;-73
2023/10/30 06:48:32;;;;;;;6.57;1.10;;;9.50;99.90;;;;;;5051026;28;20401;-73
2023/10/30 06:50:58;;;;;;;8.60;1.20;;;9.40;99.90;;;;;;5055815;28;20044;-73
2023/10/30 06:53:24;;;;;;;7.55;1.20;;;9.50;99.90;;;;;;5057950;28;20186;-73
2023/10/30 06:55:50;;;;;;;10.50;1.50;;;9.50;99.90;;;;;;5053243;28;20064;-72
2023/10/30 06:58:16;;;;;;;4.82;1.60;;;9.50;99.90;;;;;;5057908;28;20049;-75
2023/10/30 07:00:42;;;;;;;7.55;1.23;;;9.60;99.90;;;;;;5054165;28;20044;-72
2023/10/30 07:03:08;;;;;;;9.05;1.25;;;9.60;99.90;;;;;;5047152;28;20077;-72
2023/10/30 07:05:34;;;;;;;4.60;0.93;;;9.60;99.90;;;;;;5049614;28;20084;-73
2023/10/30 07:08:00;;;;;;;10.95;0.98;;;9.60;99.90;;;;;;5051264;28;20041;-74
2023/10/30 07:10:25;;;;;;;11.33;1.73;;;9.60;99.90;;;;;;5055603;28;20079;-71
2023/10/30 07:12:51;;;;;;;7.53;1.13;;;9.70;99.90;;;;;;5054536;28;20083;-72
2023/10/30 07:15:17;;;;;;;12.53;1.30;;;9.70;99.90;;;;;;5048482;28;20119;-71
2023/10/30 07:17:42;;;;;;;11.33;1.47;;;9.70;99.90;;;;;;5058555;28;20671;-72
2023/10/30 07:20:08;;;;;;;7.80;1.53;;;9.80;99.90;;;;;;5056255;28;20281;-72
2023/10/30 07:22:34;;;;;;;7.85;1.20;;;9.80;99.90;;;;;;5052424;28;20440;-72
2023/10/30 07:25:00;;;;;;;10.17;1.10;;;9.90;99.90;;;;;;5057371;28;20043;-73
2023/10/30 07:27:26;;;;;;;4.32;1.30;;;9.90;99.90;;;;;;5036564;28;20083;-71
2023/10/30 07:29:52;;;;;;;6.57;1.02;;;9.90;99.90;;;;;;5053340;28;20045;-76
2023/10/30 07:32:18;;;;;;;4.83;1.47;;;10.00;99.90;;;;;;5055740;28;20052;-72
2023/10/30 07:34:44;;;;;;;4.15;1.42;;;10.00;99.90;;;;;;5050498;28;20781;-72
2023/10/30 07:37:10;;;;;;;7.03;1.08;;;10.10;99.90;;;;;;5055976;28;20043;-72
2023/10/30 07:39:36;;;;;;;4.35;1.33;;;10.10;99.90;;;;;;5053327;28;20041;-72
2023/10/30 07:42:01;;;;;;;8.33;1.40;;;10.20;99.90;;;;;;5050661;28;20555;-72
2023/10/30 07:44:27;;;;;;;7.13;1.60;;;10.20;99.90;;;;;;5047747;28;20052;-74
2023/10/30 07:46:53;;;;;;;6.85;1.73;;;10.30;99.90;;;;;;5044886;28;20055;-72
2023/10/30 07:49:19;;;;;;;9.32;2.20;;;10.30;99.90;;;;;;5052122;28;20053;-72
2023/10/30 07:51:45;;;;;;;12.15;1.75;;;10.40;99.90;;;;;;5056030;28;20049;-73
2023/10/30 07:54:11;;;;;;;7.60;1.50;;;10.40;99.90;;;;;;5054983;28;20439;-73
2023/10/30 07:56:37;;;;;;;4.47;1.30;;;10.50;99.90;;;;;;5057489;28;20072;-71
2023/10/30 07:59:06;;;;;;;6.43;1.40;;;10.60;99.90;;;;;;5036524;28;20688;-72
2023/10/30 08:01:32;;;;;;;5.00;1.42;;;10.60;99.90;;;;;;5049921;28;20052;-71
2023/10/30 08:03:59;;;;;;;5.50;1.10;;;10.60;99.90;;;;;;5054900;28;20028;-73
2023/10/30 08:06:25;;;;;;;7.80;1.90;;;10.60;99.90;;;;;;5062935;28;20413;-73
2023/10/30 08:08:52;;;;;;;9.90;1.38;;;10.70;99.90;;;;;;5046563;28;20036;-74
2023/10/30 08:11:17;;;;;;;;;;;10.70;99.90;;;;;;5051156;28;20493;-72
2023/10/30 08:13:43;;;;;;;6.20;1.60;;;10.70;99.90;;;;;;5060942;28;19923;-73
2023/10/30 08:16:10;;;;;;;4.67;1.40;;;10.70;99.90;;;;;;5054793;28;20086;-72
2023/10/30 08:18:36;;;;;;;5.22;1.33;;;10.80;99.90;;;;;;5059967;28;20041;-72
2023/10/30 08:21:02;;;;;;;6.57;1.67;;;10.80;99.90;;;;;;5053235;28;20443;-72
2023/10/30 08:23:27;;;;;;;4.30;1.05;;;10.90;99.90;;;;;;5046027;28;20049;-73
2023/10/30 08:25:53;;;;;;;11.10;1.37;;;10.90;99.90;;;;;;5046522;28;20044;-74
2023/10/30 08:28:19;;;;;;;7.67;1.47;;;10.90;99.90;;;;;;5047486;28;20033;-72
2023/10/30 08:30:45;;;;;;;12.95;1.95;;;10.90;99.90;;;;;;5049804;28;20053;-73
2023/10/30 08:33:11;;;;;;;5.05;1.45;;;11.00;99.90;;;;;;5052505;28;20490;-73
2023/10/30 08:35:36;;;;;;;6.82;1.52;;;11.00;99.90;;;;;;5050339;28;20045;-72
2023/10/30 08:38:03;;;;;;;13.50;1.70;;;11.00;99.90;;;;;;5051979;28;20039;-73
2023/10/30 08:40:29;;;;;;;6.38;1.50;;;11.10;99.90;;;;;;5050824;28;20041;-72
2023/10/30 08:42:54;;;;;;;6.90;1.40;;;11.10;99.90;;;;;;5052881;28;20033;-74
2023/10/30 08:45:21;;;;;;;7.17;1.23;;;11.20;99.90;;;;;;5047297;28;20048;-72
2023/10/30 08:47:47;;;;;;;7.40;1.73;;;11.20;99.90;;;;;;5054667;28;20051;-74
2023/10/30 08:50:12;;;;;;;10.33;2.50;;;11.20;99.90;;;;;;5056009;28;20037;-72
2023/10/30 08:52:39;;;;;;;5.33;1.13;;;11.30;99.90;;;;;;5045452;28;20285;-75
2023/10/30 08:55:05;;;;;;;9.65;1.33;;;11.40;99.90;;;;;;5056044;28;20048;-72
2023/10/30 08:57:31;;;;;;;4.45;1.25;;;11.40;99.90;;;;;;5057328;28;20617;-73
2023/10/30 08:59:57;;;;;;;9.95;1.55;;;11.50;99.90;;;;;;5057235;28;20381;-74
2023/10/30 09:02:22;;;;;;;7.53;1.20;;;11.60;99.90;;;;;;5052240;28;20043;-72
2023/10/30 09:04:48;;;;;;;10.40;1.30;;;11.70;99.90;;;;;;5045962;28;20032;-72
2023/10/30 09:07:14;;;;;;;12.23;1.60;;;11.70;99.90;;;;;;5053571;28;20040;-73
2023/10/30 09:09:40;;;;;;;6.20;1.00;;;11.80;99.90;;;;;;5048560;28;20045;-74
2023/10/30 09:12:06;;;;;;;8.80;1.58;;;11.80;99.90;;;;;;5057148;28;20520;-71
2023/10/30 09:14:32;;;;;;;;;;;11.90;99.90;;;;;;5054090;28;20045;-74
2023/10/30 09:16:57;;;;;;;9.15;1.35;;;11.90;99.90;;;;;;5054667;28;19916;-72
2023/10/30 09:19:23;;;;;;;9.50;1.70;;;12.00;99.90;;;;;;5053646;28;20080;-74
2023/10/30 09:21:48;;;;;;;10.43;1.40;;;12.00;99.90;;;;;;5054917;28;20045;-73
2023/10/30 09:24:14;;;;;;;9.40;1.27;;;12.00;99.90;;;;;;5051839;28;20033;-72
2023/10/30 09:26:40;;;;;;;7.25;1.75;;;12.00;99.90;;;;;;5059791;28;20036;-73
2023/10/30 09:29:05;;;;;;;15.00;1.63;;;12.00;99.90;;;;;;5055588;28;20131;-72
2023/10/30 09:31:33;;;;;;;14.20;2.53;;;12.00;99.90;;;;;;5059145;28;20040;-73
2023/10/30 09:33:58;;;;;;;7.43;1.40;;;12.10;99.90;;;;;;5057201;28;20036;-72
2023/10/30 09:36:24;;;;;;;6.28;1.38;;;12.10;99.90;;;;;;5054200;28;20051;-73
2023/10/30 09:38:53;;;;;;;8.07;1.43;;;12.20;99.90;;;;;;5055894;28;20131;-73
2023/10/30 09:41:20;;;;;;;7.00;1.40;;;12.30;99.90;;;;;;5052879;28;20056;-80
2023/10/30 09:43:51;;;;;;;13.38;1.40;;;12.40;99.90;;;;;;5053267;28;20037;-76
2023/10/30 09:46:25;;;;;;;7.45;1.83;;;12.50;99.90;;;;;;5060951;28;20049;-78
2023/10/30 09:48:52;;;;;;;4.60;1.40;;;12.60;99.90;;;;;;5051015;28;20090;-76
2023/10/30 09:51:20;;;;;;;6.15;1.13;;;12.60;99.90;;;;;;5061199;28;20504;-74
2023/10/30 09:53:46;;;;;;;8.30;1.88;;;12.70;99.90;;;;;;5052670;28;20508;-78
2023/10/30 09:56:12;;;;;;;;;;;12.80;99.90;;;;;;5062577;28;20036;-76
2023/10/30 09:58:38;;;;;;;5.40;1.35;;;13.00;99.90;;;;;;5058435;28;19916;-72
2023/10/30 10:01:05;;;;;;;6.10;1.58;;;13.00;99.90;;;;;;5050366;28;20416;-72
2023/10/30 10:03:30;;;;;;;7.15;1.20;;;13.10;99.90;;;;;;5057712;28;20041;-72
2023/10/30 10:05:58;;;;;;;9.23;1.77;;;13.20;99.90;;;;;;5051912;28;20047;-76
2023/10/30 10:08:24;;;;;;;6.95;1.65;;;13.20;99.90;;;;;;5051829;28;20848;-76
2023/10/30 10:11:00;;;;;;;4.22;1.20;;;13.40;99.90;;;;;;5046972;28;20465;-73
2023/10/30 10:13:32;;;;;;;8.45;1.35;;;13.50;99.90;;;;;;5050146;28;20084;-74
2023/10/30 10:15:59;;;;;;;7.50;1.63;;;13.60;99.90;;;;;;5059107;28;20485;-73
2023/10/30 10:18:29;;;;;;;4.60;1.25;;;13.70;99.90;;;;;;5058016;28;20048;-75
2023/10/30 10:21:09;;;;;;;5.60;1.50;;;13.70;99.90;;;;;;5053331;28;20041;-75
2023/10/30 10:23:36;;;;;;;6.70;1.27;;;13.80;99.90;;;;;;5048489;28;20340;-72
2023/10/30 10:26:03;;;;;;;10.57;1.83;;;14.00;99.90;;;;;;5046613;28;20105;-74
2023/10/30 10:28:29;;;;;;;5.80;1.17;;;14.00;99.90;;;;;;5047814;28;20048;-72
2023/10/30 10:30:55;;;;;;;9.48;2.33;;;14.00;99.90;;;;;;5045953;28;20087;-72
2023/10/30 10:33:23;;;;;;;6.53;1.63;;;14.00;99.90;;;;;;5051221;28;20125;-72
2023/10/30 10:35:53;;;;;;;7.50;1.25;;;13.90;99.90;;;;;;5052062;28;20040;-73
2023/10/30 10:38:19;;;;;;;11.52;1.30;;;13.90;99.90;;;;;;5053983;28;20037;-73
2023/10/30 10:40:47;;;;;;;;;;;13.80;99.90;;;;;;5056675;28;20433;-74
2023/10/30 10:43:18;;;;;;;;;;;13.80;99.90;;;;;;5041941;28;19916;-73
2023/10/30 10:45:46;;;;;;;9.50;1.42;;;13.80;99.90;;;;;;5058740;28;19932;-74
2023/10/30 10:48:12;;;;;;;5.72;1.35;;;13.70;99.90;;;;;;5053072;28;20103;-73
2023/10/30 10:50:38;;;;;;;8.38;2.05;;;13.70;99.90;;;;;;5054727;28;20417;-75
2023/10/30 10:53:06;;;;;;;5.68;1.38;;;13.70;99.90;;;;;;5054543;28;20041;-73
2023/10/30 10:55:37;;;;;;;9.27;1.65;;;13.80;99.90;;;;;;5054214;28;20056;-73
2023/10/30 10:58:09;;;;;;;12.10;2.05;;;13.90;99.90;;;;;;5056610;28;20040;-73
2023/10/30 11:00:40;;;;;;;10.15;1.30;;;14.00;99.90;;;;;;5051618;28;20071;-73
2023/10/30 11:03:07;;;;;;;7.25;1.40;;;14.00;99.90;;;;;;5058158;28;20071;-72
2023/10/30 11:05:36;;;;;;;7.60;1.45;;;14.00;99.90;;;;;;5052235;28;20040;-72
2023/10/30 11:08:20;;;;;;;9.93;1.55;;;14.10;99.90;;;;;;5046461;28;20429;-73
2023/10/30 11:10:46;;;;;;;8.77;1.27;;;14.10;99.90;;;;;;5047653;28;20052;-74
2023/10/30 11:13:42;;;;;;;7.17;1.33;;;14.10;99.90;;;;;;5053047;28;20040;-73
2023/10/30 11:16:17;;;;;;;8.75;1.33;;;14.00;99.90;;;;;;5044448;28;20071;-73
2023/10/30 11:18:43;;;;;;;10.82;1.83;;;14.00;99.90;;;;;;5048866;28;20032;-74
2023/10/30 11:21:13;;;;;;;9.73;2.30;;;14.00;99.90;;;;;;5052273;28;20128;-73
2023/10/30 11:23:45;;;;;;;9.02;1.50;;;14.10;99.90;;;;;;5046401;28;20144;-73
2023/10/30 11:26:37;;;;;;;9.32;1.38;;;14.20;99.90;;;;;;5047498;28;20032;-73
2023/10/30 11:29:21;;;;;;;5.85;1.30;;;14.10;99.90;;;;;;5041785;28;20553;-74
2023/10/30 11:31:53;;;;;;;7.80;1.38;;;14.10;99.90;;;;;;5039137;28;20386;-74
2023/10/30 11:34:32;;;;;;;7.47;1.42;;;14.20;99.90;;;;;;5041790;28;20071;-74
2023/10/30 11:37:21;;;;;;;4.45;0.77;;;14.20;99.90;;;;;;5050181;28;20036;-75
2023/10/30 11:39:50;;;;;;;14.18;1.42;;;14.20;99.90;;;;;;5044263;28;20049;-75
2023/10/30 11:42:21;;;;;;;11.30;1.50;;;14.30;99.90;;;;;;5047825;28;20511;-74
2023/10/30 11:44:47;;;;;;;8.15;1.23;;;14.30;99.90;;;;;;5040177;28;20044;-75
2023/10/30 11:47:12;;;;;;;10.43;1.80;;;14.20;99.90;;;;;;5039399;28;20484;-73
2023/10/30 11:49:41;;;;;;;7.00;1.83;;;14.10;99.90;;;;;;5044223;28;20278;-73
2023/10/30 11:52:10;;;;;;;9.65;1.98;;;14.20;99.90;;;;;;5051819;28;20083;-74
2023/10/30 11:54:40;;;;;;;9.88;1.65;;;14.00;99.90;;;;;;5047406;28;20055;-75
2023/10/30 11:57:06;;;;;;;7.88;2.45;;;14.00;99.90;;;;;;5053177;28;20094;-73
2023/10/30 11:59:32;;;;;;;10.00;1.67;;;14.00;99.90;;;;;;5050467;28;20044;-74
2023/10/30 12:01:59;;;;;;;6.53;1.60;;;13.90;99.90;;;;;;5032178;28;20051;-75
2023/10/30 12:04:26;;;;;;;7.70;1.65;;;13.90;99.90;;;;;;5029968;28;20044;-73
2023/10/30 12:06:52;;;;;;;4.85;1.33;;;13.90;99.90;;;;;;5044193;28;20063;-75
2023/10/30 12:09:19;;;;;;;7.72;1.75;;;14.00;99.90;;;;;;5049656;28;20045;-73
2023/10/30 12:11:45;;;;;;;6.28;1.77;;;14.00;99.90;;;;;;5048057;28;20105;-76
2023/10/30 12:14:12;;;;;;;8.07;1.20;;;14.00;99.90;;;;;;5046575;28;20481;-74
2023/10/30 12:16:38;;;;;;;8.15;1.40;;;14.10;99.90;;;;;;5051782;28;20483;-73
2023/10/30 12:19:04;;;;;;;8.32;1.55;;;14.00;99.90;;;;;;5046132;28;20053;-76
2023/10/30 12:21:30;;;;;;;9.27;2.40;;;14.10;99.90;;;;;;5050186;28;20044;-73
2023/10/30 12:23:57;;;;;;;2.92;1.10;;;14.10;99.90;;;;;;5044025;28;20056;-74
2023/10/30 12:26:23;;;;;;;10.13;1.92;;;14.10;99.90;;;;;;5041174;28;20045;-75
2023/10/30 12:28:49;;;;;;;6.47;1.58;;;14.00;99.90;;;;;;5044069;28;20088;-75
2023/10/30 12:31:26;;;;;;;3.35;1.42;;;14.00;99.90;;;;;;5042170;28;20045;-75
2023/10/30 12:34:11;;;;;;;9.40;1.92;;;13.90;99.90;;;;;;5048261;28;20044;-74
2023/10/30 12:36:38;;;;;;;5.30;1.45;;;13.90;99.90;;;;;;5041897;28;20116;-75
2023/10/30 12:39:17;;;;;;;7.60;1.17;;;13.90;99.90;;;;;;5043812;28;20413;-76
2023/10/30 12:41:44;;;;;;;7.05;1.80;;;13.90;99.90;;;;;;5046730;28;20041;-76
2023/10/30 12:44:10;;;;;;;11.20;2.20;;;13.80;99.90;;;;;;5041863;28;20036;-74
2023/10/30 12:46:36;;;;;;;3.58;1.35;;;13.80;99.90;;;;;;5045375;28;20453;-74
2023/10/30 12:49:03;;;;;;;10.18;1.73;;;13.90;99.90;;;;;;5052615;28;20409;-75
2023/10/30 12:51:31;;;;;;;5.78;1.67;;;13.90;99.90;;;;;;5050587;28;20309;-73